createdAt,value
2018-07-02T00:00:13.361Z,2.80
2018-07-02T00:02:41.028Z,2.10
2018-07-02T00:05:08.939Z,1.80
2018-07-02T00:07:36.571Z,2.10
2018-07-02T00:10:04.302Z,2.10
2018-07-02T00:12:31.903Z,1.80
2018-07-02T00:14:59.507Z,1.70
2018-07-02T00:17:27.143Z,2.10
2018-07-02T00:19:54.726Z,1.80
2018-07-02T00:22:22.300Z,2.73
2018-07-02T00:24:49.951Z,1.90
2018-07-02T00:27:17.548Z,2.17
2018-07-02T00:29:45.100Z,2.00
2018-07-02T00:32:12.759Z,1.93
2018-07-02T00:34:40.400Z,2.10
2018-07-02T00:37:08.045Z,2.10
2018-07-02T00:39:35.671Z,1.73
2018-07-02T00:42:03.291Z,2.37
2018-07-02T00:44:30.892Z,2.10
2018-07-02T00:46:58.503Z,2.00
2018-07-02T00:49:26.059Z,2.00
2018-07-02T00:51:53.695Z,1.90
2018-07-02T00:54:21.287Z,2.37
2018-07-02T00:56:48.917Z,2.40
2018-07-02T00:59:16.493Z,2.20
2018-07-02T01:01:44.110Z,2.10
2018-07-02T01:04:11.696Z,1.70
2018-07-02T01:06:39.311Z,1.80
2018-07-02T01:09:08.382Z,2.17
2018-07-02T01:11:36.264Z,1.97
2018-07-02T01:14:03.981Z,2.10
2018-07-02T01:16:31.701Z,1.90
2018-07-02T01:18:59.273Z,2.33
2018-07-02T01:21:26.873Z,2.13
2018-07-02T01:23:54.493Z,1.97
2018-07-02T01:26:22.053Z,1.83
2018-07-02T01:28:49.649Z,2.10
2018-07-02T01:31:17.341Z,2.97
2018-07-02T01:33:44.989Z,2.27
2018-07-02T01:36:12.568Z,2.50
2018-07-02T01:38:40.120Z,2.20
2018-07-02T01:41:07.765Z,2.27
2018-07-02T01:43:35.389Z,2.27
2018-07-02T01:46:03.043Z,1.97
2018-07-02T01:48:30.635Z,1.80
2018-07-02T01:50:58.272Z,2.10
2018-07-02T01:53:26.357Z,2.20
2018-07-02T01:55:53.956Z,1.57
2018-07-02T01:58:21.547Z,1.50
2018-07-02T02:00:49.151Z,1.97
2018-07-02T02:03:16.791Z,1.73
2018-07-02T02:05:44.385Z,2.50
2018-07-02T02:08:12.016Z,2.13
2018-07-02T02:10:39.612Z,2.00
2018-07-02T02:13:07.251Z,2.00
2018-07-02T02:15:35.013Z,1.90
2018-07-02T02:18:02.841Z,1.70
2018-07-02T02:20:30.418Z,1.80
2018-07-02T02:22:58.001Z,1.70
2018-07-02T02:25:25.603Z,1.60
2018-07-02T02:27:53.181Z,1.30
2018-07-02T02:30:20.764Z,1.43
2018-07-02T02:32:48.368Z,1.63
2018-07-02T02:35:16.067Z,1.93
2018-07-02T02:37:43.677Z,1.70
2018-07-02T02:40:11.274Z,1.43
2018-07-02T02:42:38.915Z,2.10
2018-07-02T02:45:06.776Z,1.83
2018-07-02T02:47:34.385Z,2.00
2018-07-02T02:50:02.062Z,1.70
2018-07-02T02:52:29.638Z,1.57
2018-07-02T02:54:57.322Z,1.40
2018-07-02T02:57:25.199Z,1.60
2018-07-02T02:59:53.129Z,1.97
2018-07-02T03:02:21.020Z,1.70
2018-07-02T03:04:48.591Z,1.50
2018-07-02T03:07:16.153Z,2.00
2018-07-02T03:09:43.785Z,1.60
2018-07-02T03:12:11.371Z,2.10
2018-07-02T03:14:39.007Z,2.07
2018-07-02T03:17:06.586Z,1.90
2018-07-02T03:19:34.199Z,1.50
2018-07-02T03:22:01.763Z,1.70
2018-07-02T03:24:29.340Z,1.70
2018-07-02T03:26:56.926Z,1.70
2018-07-02T03:29:24.542Z,1.90
2018-07-02T03:31:52.146Z,1.80
2018-07-02T03:34:19.703Z,2.30
2018-07-02T03:36:47.318Z,2.10
2018-07-02T03:39:15.644Z,1.90
2018-07-02T03:41:43.181Z,1.80
2018-07-02T03:44:10.763Z,1.77
2018-07-02T03:46:38.400Z,1.77
2018-07-02T03:49:06.000Z,2.10
2018-07-02T03:51:33.580Z,1.93
2018-07-02T03:54:01.137Z,1.70
2018-07-02T03:56:28.744Z,1.80
2018-07-02T03:58:56.308Z,1.60
2018-07-02T04:01:23.929Z,2.10
2018-07-02T04:03:51.556Z,2.03
2018-07-02T04:06:19.144Z,2.10
2018-07-02T04:08:46.852Z,1.90
2018-07-02T04:11:14.475Z,2.47
2018-07-02T04:13:42.075Z,2.20
2018-07-02T04:16:09.628Z,1.93
2018-07-02T04:18:37.540Z,1.90
2018-07-02T04:21:05.258Z,2.10
2018-07-02T04:23:32.885Z,2.50
2018-07-02T04:26:00.513Z,1.93
2018-07-02T04:28:28.065Z,1.97
2018-07-02T04:30:55.666Z,1.80
2018-07-02T04:33:23.255Z,1.90
2018-07-02T04:35:50.864Z,1.97
2018-07-02T04:38:18.479Z,1.90
2018-07-02T04:40:46.042Z,1.90
2018-07-02T04:43:13.627Z,1.60
2018-07-02T04:45:41.184Z,1.90
2018-07-02T04:48:09.223Z,1.50
2018-07-02T04:50:36.815Z,1.60
2018-07-02T04:53:04.452Z,1.47
2018-07-02T04:55:32.036Z,1.50
2018-07-02T04:57:59.618Z,1.30
2018-07-02T05:00:27.244Z,1.40
2018-07-02T05:02:54.830Z,1.60
2018-07-02T05:05:22.389Z,1.33
2018-07-02T05:07:49.947Z,1.10
2018-07-02T05:10:17.523Z,1.10
2018-07-02T05:12:45.088Z,1.10
2018-07-02T05:15:12.695Z,1.00
2018-07-02T05:17:40.279Z,0.90
2018-07-02T05:20:07.793Z,1.20
2018-07-02T05:22:35.363Z,1.50
2018-07-02T05:25:02.964Z,1.00
2018-07-02T05:27:30.555Z,1.40
2018-07-02T05:29:58.088Z,1.60
2018-07-02T05:32:25.681Z,1.33
2018-07-02T05:34:53.223Z,1.20
2018-07-02T05:37:20.769Z,0.87
2018-07-02T05:39:48.380Z,1.20
2018-07-02T05:42:15.971Z,1.27
2018-07-02T05:44:43.512Z,1.50
2018-07-02T05:47:11.093Z,1.80
2018-07-02T05:49:38.629Z,1.20
2018-07-02T05:52:06.265Z,1.20
2018-07-02T05:54:33.821Z,1.00
2018-07-02T05:57:01.385Z,1.20
2018-07-02T05:59:28.979Z,1.00
2018-07-02T06:01:56.532Z,1.00
2018-07-02T06:04:24.132Z,0.90
2018-07-02T06:06:51.773Z,1.00
2018-07-02T06:09:19.516Z,0.90
2018-07-02T06:11:47.548Z,1.07
2018-07-02T06:14:15.324Z,0.90
2018-07-02T06:16:43.421Z,1.07
2018-07-02T06:19:11.460Z,1.00
2018-07-02T06:21:39.424Z,0.93
2018-07-02T06:24:07.443Z,0.80
2018-07-02T06:26:35.973Z,1.00
2018-07-02T06:29:04.560Z,1.00
2018-07-02T06:31:32.564Z,0.73
2018-07-02T06:34:00.500Z,0.70
2018-07-02T06:36:29.155Z,0.80
2018-07-02T06:38:56.923Z,0.70
2018-07-02T06:41:24.731Z,0.73
2018-07-02T06:43:52.617Z,0.97
2018-07-02T06:46:21.301Z,0.77
2018-07-02T06:48:49.319Z,0.90
2018-07-02T06:51:17.218Z,0.73
2018-07-02T06:53:45.030Z,0.60
2018-07-02T06:56:13.082Z,0.60
2018-07-02T06:58:41.699Z,0.73
2018-07-02T07:01:09.528Z,0.60
2018-07-02T07:03:37.263Z,0.87
2018-07-02T07:06:05.296Z,1.00
2018-07-02T07:08:33.174Z,0.77
2018-07-02T07:11:00.963Z,0.90
2018-07-02T07:13:29.436Z,1.53
2018-07-02T07:15:57.481Z,1.00
2018-07-02T07:18:26.132Z,1.60
2018-07-02T07:20:54.040Z,0.60
2018-07-02T07:23:22.054Z,0.67
2018-07-02T07:25:50.489Z,0.80
2018-07-02T07:28:18.205Z,0.60
2018-07-02T07:30:46.284Z,0.73
2018-07-02T07:33:14.262Z,0.70
2018-07-02T07:35:42.528Z,0.77
2018-07-02T07:38:10.111Z,0.77
2018-07-02T07:40:37.652Z,0.93
2018-07-02T07:43:05.256Z,0.63
2018-07-02T07:45:32.873Z,0.67
2018-07-02T07:48:00.788Z,0.80
2018-07-02T07:50:28.875Z,1.00
2018-07-02T07:52:56.676Z,0.80
2018-07-02T07:55:24.543Z,0.87
2018-07-02T07:57:52.449Z,0.60
2018-07-02T08:00:20.380Z,0.80
2018-07-02T08:02:48.263Z,0.90
2018-07-02T08:05:15.989Z,0.90
2018-07-02T08:07:44.040Z,0.80
2018-07-02T08:10:12.010Z,0.80
2018-07-02T08:12:40.072Z,0.90
2018-07-02T08:15:07.944Z,0.90
2018-07-02T08:17:35.990Z,1.20
2018-07-02T08:20:04.223Z,0.90
2018-07-02T08:22:32.184Z,1.00
2018-07-02T08:25:00.317Z,1.00
2018-07-02T08:27:28.043Z,0.83
2018-07-02T08:29:55.737Z,0.83
2018-07-02T08:32:24.408Z,0.90
2018-07-02T08:34:52.919Z,1.00
2018-07-02T08:37:20.895Z,0.90
2018-07-02T08:39:48.933Z,0.83
2018-07-02T08:42:17.519Z,0.90
2018-07-02T08:44:45.372Z,1.03
2018-07-02T08:47:13.160Z,1.00
2018-07-02T08:49:41.076Z,0.87
2018-07-02T08:52:09.577Z,0.80
2018-07-02T08:54:37.244Z,1.30
2018-07-02T08:57:05.700Z,0.97
2018-07-02T08:59:33.687Z,0.97
2018-07-02T09:02:01.660Z,1.00
2018-07-02T09:04:29.799Z,0.90
2018-07-02T09:06:57.595Z,0.80
2018-07-02T09:09:25.400Z,0.70
2018-07-02T09:11:53.146Z,0.87
2018-07-02T09:14:21.869Z,1.00
2018-07-02T09:16:49.673Z,0.80
2018-07-02T09:19:17.367Z,1.00
2018-07-02T09:21:45.428Z,0.80
2018-07-02T09:24:14.350Z,0.90
2018-07-02T09:26:42.290Z,0.70
2018-07-02T09:29:11.220Z,0.87
2018-07-02T09:31:39.151Z,0.80
2018-07-02T09:34:07.777Z,0.93
2018-07-02T09:36:35.585Z,1.17
2018-07-02T09:39:04.414Z,1.00
2018-07-02T09:41:32.198Z,0.70
2018-07-02T09:44:00.168Z,0.83
2018-07-02T09:46:28.548Z,0.83
2018-07-02T09:48:56.559Z,0.80
2018-07-02T09:51:25.101Z,0.90
2018-07-02T09:53:52.752Z,0.80
2018-07-02T09:56:20.776Z,0.80
2018-07-02T09:58:48.716Z,0.63
2018-07-02T10:01:16.580Z,0.90
2018-07-02T10:03:44.358Z,0.93
2018-07-02T10:06:13.381Z,0.80
2018-07-02T10:08:42.112Z,0.90
2018-07-02T10:11:10.048Z,1.00
2018-07-02T10:13:38.112Z,1.03
2018-07-02T10:16:06.140Z,0.80
2018-07-02T10:18:34.184Z,1.00
2018-07-02T10:21:01.916Z,1.30
2018-07-02T10:23:29.598Z,0.90
2018-07-02T10:25:57.684Z,1.10
2018-07-02T10:28:25.644Z,0.83
2018-07-02T10:30:53.724Z,0.90
2018-07-02T10:33:21.593Z,1.20
2018-07-02T10:35:50.224Z,0.90
2018-07-02T10:38:18.155Z,0.90
2018-07-02T10:40:46.032Z,0.90
2018-07-02T10:43:13.789Z,1.10
2018-07-02T10:45:41.623Z,0.80
2018-07-02T10:48:09.365Z,1.10
2018-07-02T10:50:37.384Z,0.90
2018-07-02T10:53:05.213Z,0.90
2018-07-02T10:55:33.099Z,0.80
2018-07-02T10:58:01.013Z,0.90
2018-07-02T11:00:28.865Z,0.80
2018-07-02T11:02:56.579Z,0.70
2018-07-02T11:05:24.331Z,0.73
2018-07-02T11:07:52.149Z,0.90
2018-07-02T11:10:20.015Z,0.63
2018-07-02T11:12:47.925Z,0.80
2018-07-02T11:15:15.748Z,0.73
2018-07-02T11:17:43.608Z,0.90
2018-07-02T11:20:11.555Z,0.90
2018-07-02T11:22:39.420Z,0.93
2018-07-02T11:25:08.126Z,0.90
2018-07-02T11:27:36.648Z,1.00
2018-07-02T11:30:05.222Z,0.80
2018-07-02T11:32:32.965Z,0.97
2018-07-02T11:35:00.847Z,1.07
2018-07-02T11:37:28.634Z,0.97
2018-07-02T11:39:56.585Z,0.70
2018-07-02T11:42:24.589Z,0.73
2018-07-02T11:44:52.513Z,0.87
2018-07-02T11:47:20.520Z,0.90
2018-07-02T11:49:48.828Z,0.80
2018-07-02T11:52:16.664Z,0.80
2018-07-02T11:54:44.456Z,0.57
2018-07-02T11:57:12.407Z,0.80
2018-07-02T11:59:40.282Z,1.03
2018-07-02T12:02:08.528Z,0.87
2018-07-02T12:04:36.337Z,0.70
2018-07-02T12:07:04.182Z,0.70
2018-07-02T12:09:31.968Z,0.93
2018-07-02T12:11:59.817Z,0.83
2018-07-02T12:14:27.637Z,0.80
2018-07-02T12:16:55.557Z,0.80
2018-07-02T12:19:23.455Z,0.63
2018-07-02T12:21:51.204Z,0.70
2018-07-02T12:24:19.076Z,0.90
2018-07-02T12:26:46.926Z,0.80
2018-07-02T12:29:14.836Z,0.97
2018-07-02T12:31:42.771Z,0.90
2018-07-02T12:34:10.476Z,1.07
2018-07-02T12:36:39.388Z,0.80
2018-07-02T12:39:09.493Z,0.80
2018-07-02T12:41:37.477Z,0.90
2018-07-02T12:44:05.292Z,1.07
2018-07-02T12:46:33.149Z,0.70
2018-07-02T12:49:01.099Z,0.80
2018-07-02T12:51:28.932Z,0.70
2018-07-02T12:53:56.798Z,0.80
2018-07-02T12:56:24.864Z,1.10
2018-07-02T12:58:52.537Z,1.10
2018-07-02T13:01:20.986Z,0.70
2018-07-02T13:03:50.021Z,0.83
2018-07-02T13:06:17.925Z,0.90
2018-07-02T13:08:45.752Z,0.80
2018-07-02T13:11:13.805Z,1.10
2018-07-02T13:13:41.672Z,1.10
2018-07-02T13:16:10.350Z,0.80
2018-07-02T13:18:38.331Z,0.90
2018-07-02T13:21:06.339Z,0.70
2018-07-02T13:23:34.745Z,0.90
2018-07-02T13:26:02.591Z,0.87
2018-07-02T13:28:30.437Z,0.90
2018-07-02T13:30:58.253Z,0.80
2018-07-02T13:33:26.167Z,0.83
2018-07-02T13:35:53.987Z,0.80
2018-07-02T13:38:21.827Z,1.00
2018-07-02T13:40:49.843Z,0.93
2018-07-02T13:43:17.932Z,1.07
2018-07-02T13:45:45.612Z,1.20
2018-07-02T13:48:13.392Z,0.80
2018-07-02T13:50:42.324Z,0.90
2018-07-02T13:53:10.278Z,0.80
2018-07-02T13:55:38.132Z,1.00
2018-07-02T13:58:06.012Z,0.90
2018-07-02T14:00:33.890Z,0.87
2018-07-02T14:03:01.720Z,1.10
2018-07-02T14:05:29.568Z,0.97
2018-07-02T14:07:57.512Z,0.83
2018-07-02T14:10:25.498Z,0.80
2018-07-02T14:12:53.487Z,1.07
2018-07-02T14:15:21.450Z,0.90
2018-07-02T14:17:49.268Z,1.00
2018-07-02T14:20:16.970Z,1.00
2018-07-02T14:22:45.399Z,1.47
2018-07-02T14:25:13.310Z,0.70
2018-07-02T14:27:41.328Z,1.10
2018-07-02T14:30:09.190Z,0.83
2018-07-02T14:32:37.300Z,1.10
2018-07-02T14:35:05.092Z,0.90
2018-07-02T14:37:32.773Z,0.90
2018-07-02T14:40:00.554Z,1.30
2018-07-02T14:42:28.512Z,1.00
2018-07-02T14:44:56.599Z,0.80
2018-07-02T14:47:24.508Z,1.07
2018-07-02T14:49:52.347Z,1.00
2018-07-02T14:52:20.116Z,0.90
2018-07-02T14:54:48.125Z,1.17
2018-07-02T14:57:16.995Z,1.20
2018-07-02T14:59:44.990Z,0.90
2018-07-02T15:02:12.806Z,1.10
2018-07-02T15:04:40.493Z,1.00
2018-07-02T15:07:08.317Z,0.97
2018-07-02T15:09:36.716Z,0.90
2018-07-02T15:12:04.433Z,1.03
2018-07-02T15:14:32.141Z,1.60
2018-07-02T15:17:00.171Z,1.00
2018-07-02T15:19:28.238Z,0.90
2018-07-02T15:21:56.746Z,0.80
2018-07-02T15:24:25.887Z,1.10
2018-07-02T15:26:54.525Z,0.70
2018-07-02T15:29:22.365Z,0.77
2018-07-02T15:31:50.182Z,0.80
2018-07-02T15:34:18.013Z,1.00
2018-07-02T15:36:45.762Z,0.93
2018-07-02T15:39:13.792Z,0.90
2018-07-02T15:41:41.877Z,0.90
2018-07-02T15:44:10.370Z,0.90
2018-07-02T15:46:38.345Z,1.10
2018-07-02T15:49:08.006Z,1.00
2018-07-02T15:51:35.851Z,1.10
2018-07-02T15:54:03.655Z,1.00
2018-07-02T15:56:31.428Z,1.07
2018-07-02T15:58:59.966Z,0.90
2018-07-02T16:01:28.007Z,0.80
2018-07-02T16:03:56.026Z,0.90
2018-07-02T16:06:24.567Z,1.00
2018-07-02T16:08:52.424Z,0.90
2018-07-02T16:11:20.211Z,1.00
2018-07-02T16:13:48.179Z,0.83
2018-07-02T16:16:16.828Z,0.80
2018-07-02T16:18:44.746Z,0.87
2018-07-02T16:21:12.632Z,1.00
2018-07-02T16:23:40.677Z,0.93
2018-07-02T16:26:09.098Z,0.80
2018-07-02T16:28:36.808Z,0.90
2018-07-02T16:31:04.608Z,1.03
2018-07-02T16:33:32.507Z,1.10
2018-07-02T16:36:00.556Z,0.83
2018-07-02T16:38:28.592Z,1.00
2018-07-02T16:40:56.401Z,0.80
2018-07-02T16:43:24.331Z,1.00
2018-07-02T16:45:52.061Z,1.10
2018-07-02T16:48:19.823Z,0.70
2018-07-02T16:50:48.577Z,0.80
2018-07-02T16:53:16.484Z,1.00
2018-07-02T16:55:44.212Z,0.90
2018-07-02T16:58:12.048Z,0.90
2018-07-02T17:00:39.945Z,1.20
2018-07-02T17:03:08.338Z,1.13
2018-07-02T17:05:36.252Z,1.77
2018-07-02T17:08:04.187Z,1.30
2018-07-02T17:10:32.205Z,1.30
2018-07-02T17:13:00.102Z,1.03
2018-07-02T17:15:28.075Z,1.00
2018-07-02T17:17:55.986Z,1.20
2018-07-02T17:20:23.726Z,1.00
2018-07-02T17:22:52.125Z,1.13
2018-07-02T17:25:20.046Z,1.00
2018-07-02T17:27:48.048Z,0.80
2018-07-02T17:30:15.865Z,1.13
2018-07-02T17:32:43.660Z,1.07
2018-07-02T17:35:12.306Z,1.37
2018-07-02T17:37:40.099Z,1.27
2018-07-02T17:40:07.928Z,1.10
2018-07-02T17:42:35.835Z,1.20
2018-07-02T17:45:03.989Z,0.93
2018-07-02T17:47:31.700Z,1.00
2018-07-02T17:50:00.090Z,0.87
2018-07-02T17:52:28.099Z,0.90
2018-07-02T17:54:56.357Z,0.90
2018-07-02T17:57:24.329Z,0.90
2018-07-02T17:59:52.256Z,0.90
2018-07-02T18:02:20.037Z,1.00
2018-07-02T18:04:47.936Z,0.90
2018-07-02T18:07:15.857Z,0.90
2018-07-02T18:09:43.599Z,1.10
2018-07-02T18:12:11.569Z,1.60
2018-07-02T18:14:40.173Z,1.40
2018-07-02T18:17:08.168Z,1.13
2018-07-02T18:19:35.984Z,1.83
2018-07-02T18:22:03.807Z,1.70
2018-07-02T18:24:31.609Z,1.40
2018-07-02T18:26:59.377Z,1.70
2018-07-02T18:29:27.387Z,2.00
2018-07-02T18:31:55.335Z,1.00
2018-07-02T18:34:23.356Z,0.93
2018-07-02T18:36:51.305Z,1.10
2018-07-02T18:39:19.182Z,1.00
2018-07-02T18:41:47.143Z,1.10
2018-07-02T18:44:14.959Z,1.20
2018-07-02T18:46:42.877Z,1.10
2018-07-02T18:49:10.851Z,1.10
2018-07-02T18:51:39.508Z,1.10
2018-07-02T18:54:07.318Z,1.17
2018-07-02T18:56:35.028Z,1.17
2018-07-02T18:59:03.097Z,1.30
2018-07-02T19:01:31.085Z,1.13
2018-07-02T19:03:58.852Z,1.30
2018-07-02T19:06:26.719Z,1.50
2018-07-02T19:08:54.517Z,1.43
2018-07-02T19:11:22.285Z,1.30
2018-07-02T19:13:50.312Z,1.30
2018-07-02T19:16:18.265Z,1.43
2018-07-02T19:18:46.116Z,1.50
2018-07-02T19:21:13.946Z,0.97
2018-07-02T19:23:41.743Z,1.50
2018-07-02T19:26:09.576Z,1.00
2018-07-02T19:28:37.466Z,1.30
2018-07-02T19:31:05.365Z,1.53
2018-07-02T19:33:33.182Z,1.20
2018-07-02T19:36:01.154Z,1.40
2018-07-02T19:38:29.080Z,1.57
2018-07-02T19:40:57.159Z,1.70
2018-07-02T19:43:25.452Z,1.30
2018-07-02T19:45:53.264Z,1.00
2018-07-02T19:48:21.067Z,1.40
2018-07-02T19:50:48.999Z,1.20
2018-07-02T19:53:17.339Z,1.20
2018-07-02T19:55:45.258Z,1.10
2018-07-02T19:58:13.110Z,0.97
2018-07-02T20:00:40.873Z,1.00
2018-07-02T20:03:08.790Z,1.20
2018-07-02T20:05:36.843Z,1.40
2018-07-02T20:08:04.683Z,1.13
2018-07-02T20:10:32.573Z,0.80
2018-07-02T20:13:00.706Z,1.30
2018-07-02T20:15:28.770Z,1.20
2018-07-02T20:17:57.409Z,1.13
2018-07-02T20:20:25.537Z,1.10
2018-07-02T20:22:53.652Z,1.20
2018-07-02T20:25:21.702Z,1.00
2018-07-02T20:27:49.521Z,1.20
2018-07-02T20:30:17.312Z,1.30
2018-07-02T20:32:45.348Z,1.20
2018-07-02T20:35:13.290Z,1.10
2018-07-02T20:37:41.828Z,1.20
2018-07-02T20:40:10.342Z,1.30
2018-07-02T20:42:38.703Z,1.03
2018-07-02T20:45:06.954Z,1.20
2018-07-02T20:47:34.943Z,1.10
2018-07-02T20:50:02.942Z,1.20
2018-07-02T20:52:30.963Z,1.47
2018-07-02T20:54:58.903Z,1.13
2018-07-02T20:57:26.915Z,1.33
2018-07-02T20:59:55.836Z,1.50
2018-07-02T21:02:23.796Z,1.30
2018-07-02T21:04:51.409Z,1.20
2018-07-02T21:07:19.016Z,1.60
2018-07-02T21:09:46.677Z,1.60
2018-07-02T21:12:14.364Z,1.20
2018-07-02T21:14:41.988Z,1.50
2018-07-02T21:17:10.128Z,1.60
2018-07-02T21:19:37.908Z,1.53
2018-07-02T21:22:06.013Z,1.50
2018-07-02T21:24:34.004Z,1.50
2018-07-02T21:27:01.920Z,1.80
2018-07-02T21:29:29.822Z,1.50
2018-07-02T21:31:57.775Z,1.90
2018-07-02T21:34:25.425Z,1.70
2018-07-02T21:36:53.129Z,1.50
2018-07-02T21:39:21.203Z,1.87
2018-07-02T21:41:49.021Z,1.50
2018-07-02T21:44:16.744Z,1.50
2018-07-02T21:46:44.508Z,1.70
2018-07-02T21:49:12.372Z,1.67
2018-07-02T21:51:40.251Z,1.80
2018-07-02T21:54:07.889Z,1.43
2018-07-02T21:56:35.549Z,1.70
2018-07-02T21:59:03.301Z,2.03
2018-07-02T22:01:31.328Z,1.50
2018-07-02T22:03:59.344Z,1.40
2018-07-02T22:06:27.276Z,1.93
2018-07-02T22:08:55.167Z,1.53
2018-07-02T22:11:22.900Z,1.20
2018-07-02T22:13:50.759Z,1.80
2018-07-02T22:16:19.524Z,1.30
2018-07-02T22:18:47.419Z,1.57
2018-07-02T22:21:15.408Z,1.43
2018-07-02T22:23:43.455Z,1.10
2018-07-02T22:26:11.241Z,1.23
2018-07-02T22:28:39.056Z,1.70
2018-07-02T22:31:07.036Z,1.57
2018-07-02T22:33:34.852Z,1.30
2018-07-02T22:36:02.665Z,1.80
2018-07-02T22:38:30.707Z,1.63
2018-07-02T22:40:58.672Z,1.67
2018-07-02T22:43:26.533Z,1.27
2018-07-02T22:45:54.358Z,1.33
2018-07-02T22:48:22.227Z,1.37
2018-07-02T22:50:50.080Z,1.20
2018-07-02T22:53:17.905Z,1.10
2018-07-02T22:55:50.924Z,1.70
2018-07-02T22:58:18.793Z,1.40
2018-07-02T23:00:46.649Z,2.00
2018-07-02T23:03:14.752Z,1.80
2018-07-02T23:05:42.628Z,1.60
2018-07-02T23:08:11.112Z,1.20
2018-07-02T23:10:38.928Z,1.43
2018-07-02T23:13:07.493Z,1.47
2018-07-02T23:15:35.456Z,1.70
2018-07-02T23:18:03.482Z,1.50
2018-07-02T23:20:31.261Z,2.00
2018-07-02T23:23:01.251Z,1.80
2018-07-02T23:25:30.121Z,1.53
2018-07-02T23:27:59.974Z,1.50
2018-07-02T23:30:28.799Z,1.57
2018-07-02T23:32:56.751Z,1.40
2018-07-02T23:35:24.826Z,1.50
2018-07-02T23:37:52.892Z,1.63
2018-07-02T23:40:22.348Z,1.63
2018-07-02T23:42:51.021Z,1.30
2018-07-02T23:45:18.891Z,1.17
2018-07-02T23:47:46.876Z,1.50
2018-07-02T23:50:14.788Z,1.50
2018-07-02T23:52:43.018Z,1.63
2018-07-02T23:55:11.431Z,2.00
2018-07-02T23:57:39.353Z,1.60
